Time;durP1;ratioP1;P1;durP2;ratioP2;P2;SDS_P1;SDS_P2;PMS_P1;PMS_P2;Temp;Humidity;BMP_temperature;BMP_pressure;BME280_temperature;BME280_humidity;BME280_pressure;Samples;Min_cycle;Max_cycle;Signal;HPM_P1;HPM_P2
2023/05/25 00:01:08;;;;;;;6.97;4.47;;;;;;;15.89;65.52;93891.38;5007401;28;20022;-75
2023/05/25 00:03:34;;;;;;;11.40;4.85;;;;;;;15.91;65.62;93902.56;5025264;28;20021;-76
2023/05/25 00:06:00;;;;;;;4.90;3.63;;;;;;;15.88;64.93;93897.88;5025052;28;20085;-76
2023/05/25 00:08:26;;;;;;;9.20;4.38;;;;;;;15.84;64.75;93897.78;5024936;28;20029;-76
2023/05/25 00:10:52;;;;;;;11.00;4.95;;;;;;;15.82;65.28;93900.81;5025059;28;20037;-77
2023/05/25 00:13:17;;;;;;;12.35;4.55;;;;;;;15.81;65.74;93904.66;5025133;28;20330;-76
2023/05/25 00:15:43;;;;;;;11.45;5.15;;;;;;;15.80;66.30;93908.44;5025119;28;20068;-76
2023/05/25 00:18:08;;;;;;;9.98;4.75;;;;;;;15.77;66.57;93901.09;5024934;28;20022;-76
2023/05/25 00:20:34;;;;;;;18.95;5.43;;;;;;;15.75;66.78;93908.72;5024896;28;20033;-76
2023/05/25 00:23:01;;;;;;;10.63;5.38;;;;;;;15.72;67.04;93906.69;5024843;28;20052;-76
2023/05/25 00:25:27;;;;;;;19.50;6.28;;;;;;;15.70;67.58;93908.91;5024781;28;20071;-76
2023/05/25 00:27:52;;;;;;;14.60;6.10;;;;;;;15.71;67.60;93904.31;5024871;28;20029;-76
2023/05/25 00:30:18;;;;;;;10.88;5.90;;;;;;;15.67;67.85;93914.97;5025032;28;20044;-76
2023/05/25 00:32:44;;;;;;;13.55;5.43;;;;;;;15.65;68.07;93907.28;5024661;28;20021;-77
2023/05/25 00:35:10;;;;;;;19.55;6.78;;;;;;;15.61;68.64;93910.97;5024543;28;20057;-78
2023/05/25 00:37:35;;;;;;;12.00;5.47;;;;;;;15.54;68.68;93921.53;5024613;28;20021;-77
2023/05/25 00:40:01;;;;;;;7.75;5.20;;;;;;;15.50;68.71;93915.28;5024573;28;20034;-77
2023/05/25 00:42:26;;;;;;;14.38;5.40;;;;;;;15.42;69.04;93916.97;5024423;28;20021;-77
2023/05/25 00:44:52;;;;;;;9.20;5.80;;;;;;;15.37;69.57;93917.25;5024417;28;20065;-76
2023/05/25 00:47:18;;;;;;;17.20;6.82;;;;;;;15.29;69.55;93921.63;5024542;28;20026;-76
2023/05/25 00:49:44;;;;;;;11.77;6.50;;;;;;;15.23;69.88;93923.00;5024311;28;20018;-76
2023/05/25 00:52:12;;;;;;;9.55;6.00;;;;;;;15.20;70.05;93915.59;5024325;28;20026;-76
2023/05/25 00:54:38;;;;;;;11.35;6.85;;;;;;;15.20;70.39;93919.09;5024454;28;20040;-77
2023/05/25 00:57:06;;;;;;;11.85;6.32;;;;;;;15.16;70.41;93920.09;5024159;28;20324;-75
2023/05/25 00:59:45;;;;;;;12.40;5.78;;;;;;;15.07;70.54;93914.84;5024167;28;20228;-75
2023/05/25 01:02:14;;;;;;;16.83;6.57;;;;;;;15.03;70.83;93914.75;5023997;28;20029;-75
2023/05/25 01:04:46;;;;;;;12.93;6.00;;;;;;;15.03;70.98;93917.44;5024006;28;20022;-75
2023/05/25 01:07:27;;;;;;;11.90;7.32;;;;;;;15.02;71.00;93918.56;5024030;28;20132;-75
2023/05/25 01:10:01;;;;;;;14.73;6.78;;;;;;;14.98;71.31;93917.69;5023586;28;20089;-75
2023/05/25 01:12:28;;;;;;;13.68;6.68;;;;;;;14.95;71.53;93929.09;5023991;28;20248;-75
2023/05/25 01:14:54;;;;;;;10.15;6.43;;;;;;;14.89;71.59;93927.75;5023842;28;20037;-76
2023/05/25 01:17:20;;;;;;;9.70;5.63;;;;;;;14.87;71.67;93927.31;5023978;28;20021;-75
2023/05/25 01:19:46;;;;;;;11.73;5.93;;;;;;;14.83;71.66;93932.56;5023098;28;20026;-76
2023/05/25 01:22:19;;;;;;;8.55;4.75;;;;;;;14.79;71.47;93925.53;5023448;28;20227;-76
2023/05/25 01:24:53;;;;;;;9.98;6.13;;;;;;;14.71;71.25;93924.53;5023737;28;20029;-76
2023/05/25 01:27:34;;;;;;;9.45;5.00;;;;;;;14.56;71.84;93920.63;5023717;28;20021;-76
2023/05/25 01:30:02;;;;;;;9.30;5.15;;;;;;;14.50;72.09;93918.50;5023575;28;20096;-76
2023/05/25 01:32:31;;;;;;;9.35;5.68;;;;;;;14.41;72.18;93916.72;5023623;28;20030;-76
2023/05/25 01:34:59;;;;;;;9.57;5.07;;;;;;;14.41;72.42;93919.38;5005901;28;20060;-76
2023/05/25 01:37:26;;;;;;;12.57;5.22;;;;;;;14.39;72.15;93918.13;5023272;28;20077;-76
2023/05/25 01:39:51;;;;;;;6.75;4.85;;;;;;;14.34;72.44;93910.34;5023036;28;20089;-76
2023/05/25 01:42:17;;;;;;;11.35;5.78;;;;;;;14.37;72.30;93901.59;5023218;28;20026;-77
2023/05/25 01:44:43;;;;;;;8.40;5.53;;;;;;;14.35;72.21;93903.84;5023118;28;20026;-76
2023/05/25 01:47:23;;;;;;;12.60;5.57;;;;;;;14.40;72.33;93890.22;5023011;28;20339;-76
2023/05/25 01:49:57;;;;;;;9.98;5.18;;;;;;;14.36;72.36;93881.28;5023595;28;20022;-76
2023/05/25 01:52:31;;;;;;;7.65;4.95;;;;;;;14.30;72.74;93883.41;5023249;28;20025;-75
2023/05/25 01:55:06;;;;;;;9.40;5.85;;;;;;;14.32;72.75;93893.81;5023138;28;20269;-75
2023/05/25 01:57:36;;;;;;;14.32;5.60;;;;;;;14.32;72.66;93886.53;5022995;28;20022;-75
2023/05/25 07:24:04;;;;;;;8.60;5.30;;;;;;;20.02;58.95;94026.63;5164257;27;20371;-89
2023/05/25 07:26:33;;;;;;;6.95;5.40;;;;;;;19.89;59.86;94045.03;5165521;27;20316;-88
2023/05/25 07:28:59;;;;;;;10.13;5.82;;;;;;;19.91;59.98;94041.97;5165758;27;20011;-88
2023/05/25 07:31:27;;;;;;;8.07;4.72;;;;;;;19.96;60.15;94030.81;5163700;27;20015;-88
2023/05/25 07:33:54;;;;;;;10.98;5.85;;;;;;;20.03;58.48;94050.59;5145480;27;20068;-88
2023/05/25 07:36:19;;;;;;;13.10;5.38;;;;;;;20.02;59.94;94053.69;5163363;27;20037;-88
2023/05/25 07:38:46;;;;;;;12.18;5.53;;;;;;;19.98;59.60;94050.91;5145114;27;20312;-88
2023/05/25 07:41:12;;;;;;;9.43;4.28;;;;;;;20.01;57.04;94044.78;5163284;27;20022;-88
2023/05/25 07:43:38;;;;;;;8.23;4.85;;;;;;;20.09;57.55;94045.66;5163069;27;20026;-89
2023/05/25 07:46:03;;;;;;;6.15;3.63;;;;;;;20.06;59.06;94049.09;5163147;27;20052;-88
2023/05/25 07:48:29;;;;;;;12.38;4.22;;;;;;;20.22;57.26;94054.31;5144836;27;20317;-89
2023/05/25 07:50:55;;;;;;;5.78;4.05;;;;;;;20.19;57.69;94047.72;5163218;27;20022;-89
2023/05/25 07:53:20;;;;;;;8.40;4.57;;;;;;;20.16;58.30;94056.56;5162815;27;20220;-88
2023/05/25 07:55:46;;;;;;;5.38;3.58;;;;;;;19.92;55.39;94048.91;5163214;27;20101;-88
2023/05/25 07:58:11;;;;;;;6.60;4.38;;;;;;;19.76;56.57;94060.72;5163011;27;20022;-89
2023/05/25 08:00:37;;;;;;;17.45;4.95;;;;;;;19.67;56.53;94057.47;5161655;27;20339;-84
2023/05/25 08:03:02;;;;;;;8.68;3.92;;;;;;;19.65;57.68;94059.75;5161091;27;20019;-85
2023/05/25 08:05:28;;;;;;;14.75;4.50;;;;;;;19.70;58.09;94061.34;5161616;27;20023;-87
2023/05/25 08:07:53;;;;;;;13.95;4.30;;;;;;;19.74;56.98;94063.00;5143370;27;20336;-85
2023/05/25 08:10:19;;;;;;;10.00;4.18;;;;;;;19.66;56.75;94066.69;5161949;27;20220;-86
2023/05/25 08:12:44;;;;;;;9.13;4.35;;;;;;;19.69;57.94;94067.91;5161641;27;20045;-86
2023/05/25 08:15:11;;;;;;;10.73;4.35;;;;;;;19.74;58.33;94071.13;5161551;27;20030;-85
2023/05/25 08:17:37;;;;;;;16.88;4.13;;;;;;;19.57;57.14;94077.78;5161850;27;20335;-87
2023/05/25 08:20:05;;;;;;;8.18;3.90;;;;;;;19.55;56.13;94076.59;5162112;27;20042;-89
2023/05/25 08:22:30;;;;;;;8.25;3.47;;;;;;;19.55;56.71;94082.00;5162016;27;20042;-89
2023/05/25 08:24:56;;;;;;;10.82;3.60;;;;;;;19.59;56.94;94085.53;5130636;27;20080;-89
2023/05/25 08:27:21;;;;;;;10.88;3.60;;;;;;;19.50;57.83;94093.13;5129949;27;20064;-88
2023/05/25 08:29:47;;;;;;;19.23;5.63;;;;;;;19.40;59.11;94108.81;5147860;27;20197;-89
2023/05/25 08:32:12;;;;;;;14.18;5.03;;;;;;;19.32;59.36;94115.25;5147929;27;20106;-89
2023/05/25 08:34:38;;;;;;;13.30;6.97;;;;;;;19.17;61.06;94121.56;5128671;27;20212;-82
2023/05/25 08:37:03;;;;;;;17.00;7.50;;;;;;;19.14;61.37;94125.00;5146705;27;20031;-83
2023/05/25 08:39:29;;;;;;;14.68;6.63;;;;;;;19.06;60.69;94124.09;5146747;27;20023;-81
2023/05/25 08:41:58;;;;;;;10.68;6.10;;;;;;;18.88;60.94;94129.19;5146753;27;20019;-88
2023/05/25 08:44:26;;;;;;;17.15;5.70;;;;;;;18.58;61.98;94137.88;5128283;27;20027;-80
2023/05/25 08:46:54;;;;;;;10.38;4.60;;;;;;;18.33;61.63;94139.31;5146399;27;20029;-79
2023/05/25 08:49:21;;;;;;;36.70;22.20;;;;;;;18.27;63.34;94138.03;5146207;27;20350;-82
2023/05/25 08:51:49;;;;;;;14.15;5.85;;;;;;;18.25;64.92;94146.47;5146030;27;20026;-79
2023/05/25 08:54:18;;;;;;;9.15;5.25;;;;;;;18.15;64.76;94152.41;5146146;27;20027;-78
2023/05/25 08:56:52;;;;;;;17.30;5.95;;;;;;;18.13;67.46;94143.91;5146129;27;20082;-77
2023/05/25 08:59:17;;;;;;;8.02;4.70;;;;;;;18.13;66.75;94143.91;5146177;27;20339;-76
2023/05/25 09:01:45;;;;;;;9.02;5.30;;;;;;;18.14;67.71;94145.47;5146015;27;20019;-77
2023/05/25 09:04:12;;;;;;;9.75;5.07;;;;;;;18.16;69.51;94149.38;5146231;27;20045;-76
2023/05/25 09:06:38;;;;;;;8.57;5.22;;;;;;;18.18;69.59;94141.72;5146084;27;20030;-78
2023/05/25 09:09:04;;;;;;;18.95;5.30;;;;;;;18.25;69.93;94147.25;5127622;27;20019;-80
2023/05/25 09:11:31;;;;;;;8.95;4.28;;;;;;;18.25;68.64;94152.63;5145719;27;20344;-78
2023/05/25 09:13:56;;;;;;;7.80;3.95;;;;;;;18.32;66.87;94162.00;5145743;27;20251;-79
2023/05/25 09:16:22;;;;;;;7.82;3.85;;;;;;;18.33;67.42;94153.56;5145677;27;20056;-78
2023/05/25 09:18:48;;;;;;;7.78;3.53;;;;;;;18.33;67.44;94155.50;5145609;27;20031;-80
2023/05/25 09:21:14;;;;;;;8.07;2.78;;;;;;;18.29;65.55;94157.34;5145366;27;20060;-80
2023/05/25 09:23:39;;;;;;;6.38;3.20;;;;;;;18.03;61.74;94151.44;5145375;27;20043;-78
2023/05/25 09:26:05;;;;;;;4.55;2.60;;;;;;;17.96;63.37;94153.19;5145502;27;20027;-82
2023/05/25 09:28:30;;;;;;;4.97;2.80;;;;;;;17.96;66.37;94153.19;5145314;27;20045;-83
2023/05/25 09:30:56;;;;;;;7.47;3.22;;;;;;;17.89;65.50;94151.13;5145870;27;20035;-80
2023/05/25 09:33:22;;;;;;;8.57;3.05;;;;;;;17.83;63.32;94155.22;5145165;27;20022;-78
2023/05/25 09:35:48;;;;;;;6.25;3.20;;;;;;;17.81;63.52;94149.38;5144377;27;20030;-80
2023/05/25 09:38:17;;;;;;;10.05;3.00;;;;;;;17.81;63.87;94149.38;5145229;27;20019;-83
2023/05/25 09:40:43;;;;;;;7.88;3.22;;;;;;;17.82;64.80;94132.81;5145289;27;20309;-79
2023/05/25 09:43:10;;;;;;;5.22;3.20;;;;;;;17.80;64.75;94137.78;5145271;27;20021;-83
2023/05/25 09:45:35;;;;;;;5.88;3.13;;;;;;;17.81;67.89;94138.59;5145066;27;20025;-79
2023/05/25 09:48:01;;;;;;;5.72;3.03;;;;;;;17.87;67.48;94128.31;5145002;27;20023;-82
2023/05/25 09:50:31;;;;;;;9.40;4.13;;;;;;;17.86;69.04;94124.06;5144893;27;20026;-82
2023/05/25 09:53:00;;;;;;;7.57;4.20;;;;;;;17.92;70.06;94128.06;5144959;27;20054;-79
2023/05/25 09:55:27;;;;;;;6.97;2.70;;;;;;;18.04;66.24;94115.22;5144736;27;20251;-78
2023/05/25 09:57:54;;;;;;;5.65;3.15;;;;;;;18.27;65.36;94108.34;5144798;27;20041;-79
2023/05/25 10:00:21;;;;;;;10.30;4.05;;;;;;;18.47;66.14;94103.72;5144828;27;20019;-81
2023/05/25 10:02:47;;;;;;;6.53;3.13;;;;;;;18.67;66.07;94099.84;5145017;27;20064;-80
2023/05/25 10:05:12;;;;;;;6.88;3.40;;;;;;;18.93;65.81;94099.19;5126310;27;20031;-81
2023/05/25 10:07:39;;;;;;;4.35;2.90;;;;;;;19.20;61.86;94100.00;5144581;27;20030;-83
2023/05/25 10:10:08;;;;;;;5.43;2.90;;;;;;;19.45;60.31;94103.09;5144533;27;20022;-81
2023/05/25 10:12:34;;;;;;;5.38;3.10;;;;;;;19.59;60.20;94096.34;5126106;27;20061;-81
2023/05/25 10:15:02;;;;;;;5.80;3.08;;;;;;;19.66;61.53;94096.44;5144465;27;20019;-83
2023/05/25 10:17:30;;;;;;;5.72;2.65;;;;;;;19.56;59.99;94097.88;5144488;27;20308;-85
2023/05/25 10:19:59;;;;;;;10.70;4.32;;;;;;;19.60;62.11;94093.28;5145056;27;20041;-86
2023/05/25 10:22:38;;;;;;;7.18;3.28;;;;;;;19.62;64.72;94096.41;5126373;27;20031;-81
2023/05/25 10:25:19;;;;;;;8.43;3.42;;;;;;;19.57;61.78;94093.22;5145682;27;20032;-84
2023/05/25 10:27:56;;;;;;;5.60;3.55;;;;;;;19.67;61.54;94076.38;5127188;27;20023;-84
2023/05/25 10:30:24;;;;;;;5.78;3.50;;;;;;;19.74;60.90;94086.53;5125944;27;20030;-83
2023/05/25 10:32:51;;;;;;;6.85;3.83;;;;;;;19.79;59.09;94075.41;5143969;27;20023;-82
2023/05/25 10:35:17;;;;;;;6.13;3.80;;;;;;;19.79;62.61;94076.19;5125969;27;20110;-81
2023/05/25 10:37:44;;;;;;;9.15;4.80;;;;;;;19.81;64.12;94071.19;5144321;27;20019;-85
2023/05/25 10:40:10;;;;;;;11.63;4.72;;;;;;;19.72;62.20;94064.50;5144692;27;20384;-85
2023/05/25 10:42:36;;;;;;;6.13;4.13;;;;;;;19.76;61.96;94065.31;5144891;27;20022;-84
2023/05/25 10:45:05;;;;;;;7.18;3.95;;;;;;;19.73;61.00;94064.13;5145018;27;20144;-85
2023/05/25 10:47:34;;;;;;;8.68;4.30;;;;;;;19.80;62.73;94056.13;5144150;27;20022;-85
2023/05/25 10:50:01;;;;;;;6.90;4.10;;;;;;;19.79;63.86;94051.84;5144184;27;20042;-85
2023/05/25 10:52:28;;;;;;;6.25;3.88;;;;;;;19.76;61.24;94030.97;5144322;27;20063;-82
2023/05/25 10:55:03;;;;;;;9.00;4.75;;;;;;;19.81;64.19;94035.25;5144721;27;20029;-83
2023/05/25 10:57:28;;;;;;;7.63;3.55;;;;;;;19.84;61.33;94032.63;5144612;27;20019;-84
2023/05/25 11:00:00;;;;;;;9.20;4.80;;;;;;;19.82;62.92;94029.50;5144131;27;20060;-82
2023/05/25 11:02:26;;;;;;;;;;;;;;;19.75;63.38;94034.81;5145138;27;20015;-83
2023/05/25 11:05:27;;;;;;;11.27;5.43;;;;;;;19.74;63.85;94021.63;5126569;28;19946;-83
2023/05/25 11:08:04;;;;;;;8.63;5.57;;;;;;;19.67;61.96;94027.72;5144663;27;20073;-83
2023/05/25 11:10:47;;;;;;;15.88;6.15;;;;;;;19.62;62.17;94026.13;5144486;28;20086;-83
2023/05/25 11:13:34;;;;;;;12.25;6.03;;;;;;;19.54;61.37;94027.16;5144436;28;20305;-83
2023/05/25 11:16:38;;;;;;;12.50;6.30;;;;;;;19.64;61.85;94028.44;5144465;28;20039;-83
2023/05/25 11:19:13;;;;;;;9.70;5.70;;;;;;;19.57;63.15;94033.75;5144258;28;20072;-83
2023/05/25 11:21:43;;;;;;;13.75;5.20;;;;;;;19.69;62.64;94030.06;5144191;28;20317;-84
2023/05/25 11:24:14;;;;;;;8.98;5.20;;;;;;;19.77;61.44;94034.44;5144621;28;20023;-83
2023/05/25 11:27:00;;;;;;;9.00;5.15;;;;;;;19.90;60.78;94032.28;5143812;28;20043;-83
2023/05/25 11:29:30;;;;;;;13.82;5.55;;;;;;;19.96;60.26;94044.31;5143961;28;20031;-83
2023/05/25 11:31:55;;;;;;;8.88;5.85;;;;;;;19.99;59.65;94040.91;5144105;28;20015;-83
2023/05/25 11:34:23;;;;;;;12.00;5.03;;;;;;;20.02;60.30;94042.84;5126045;28;20031;-83
2023/05/25 11:36:52;;;;;;;9.13;5.57;;;;;;;19.90;60.48;94035.75;5144268;28;20221;-83
2023/05/25 11:39:21;;;;;;;15.93;5.15;;;;;;;19.88;60.70;94037.28;5125763;28;20068;-84
2023/05/25 11:41:53;;;;;;;8.05;4.30;;;;;;;19.79;60.05;94029.44;5144060;28;20027;-83
2023/05/25 11:44:27;;;;;;;13.40;4.97;;;;;;;19.78;61.83;94035.97;5143951;28;20081;-84
2023/05/25 11:46:56;;;;;;;7.82;4.57;;;;;;;19.86;60.95;94039.56;5125540;28;20296;-83
2023/05/25 11:49:23;;;;;;;13.68;5.25;;;;;;;19.94;59.60;94035.81;5143791;28;20045;-83
2023/05/25 11:51:49;;;;;;;11.00;5.32;;;;;;;19.99;59.86;94038.97;5143725;28;20018;-84
2023/05/25 11:54:25;;;;;;;8.18;4.40;;;;;;;20.10;59.22;94033.66;5143833;28;20030;-84
2023/05/25 11:56:52;;;;;;;12.57;5.05;;;;;;;20.08;58.77;94041.38;5143456;28;20094;-83
2023/05/25 11:59:18;;;;;;;15.88;5.60;;;;;;;20.11;58.18;94032.53;5145390;27;20029;-82
2023/05/25 12:02:03;;;;;;;7.95;4.00;;;;;;;20.16;58.08;94026.78;5147208;27;20042;-82
2023/05/25 12:04:29;;;;;;;13.10;4.35;;;;;;;20.22;58.69;94025.31;5146819;27;20047;-81
2023/05/25 12:07:06;;;;;;;17.77;4.07;;;;;;;20.29;55.97;94018.41;5147279;27;20358;-83
2023/05/25 12:09:31;;;;;;;8.40;3.22;;;;;;;20.33;55.71;94028.13;5147095;27;20015;-83
2023/05/25 12:11:58;;;;;;;13.75;4.22;;;;;;;20.36;56.29;94015.78;5146883;27;20030;-82
2023/05/25 12:14:24;;;;;;;14.02;4.05;;;;;;;20.47;55.89;94022.06;5128592;27;20030;-82
2023/05/25 12:16:50;;;;;;;9.25;4.30;;;;;;;20.55;55.42;94026.41;5147044;27;20023;-84
2023/05/25 12:19:17;;;;;;;8.68;3.78;;;;;;;20.67;54.45;94032.75;5128714;27;20042;-81
2023/05/25 12:21:43;;;;;;;12.15;4.13;;;;;;;20.71;54.66;94028.16;5146782;27;20033;-84
2023/05/25 12:24:11;;;;;;;9.68;3.58;;;;;;;20.87;54.19;94017.06;5146792;27;20084;-81
2023/05/25 12:26:49;;;;;;;13.05;3.60;;;;;;;21.10;53.93;94008.72;5146897;27;20374;-82
2023/05/25 12:29:15;;;;;;;10.45;3.65;;;;;;;21.26;53.19;94003.78;5147256;27;20031;-84
2023/05/25 12:31:40;;;;;;;9.10;2.70;;;;;;;21.45;52.96;94005.47;5146612;27;20100;-81
2023/05/25 12:34:16;;;;;;;4.97;2.78;;;;;;;21.54;50.93;94002.44;5146559;27;20075;-81
2023/05/25 12:36:45;;;;;;;13.25;3.20;;;;;;;21.86;53.02;93999.91;5128377;27;20341;-82
2023/05/25 12:39:13;;;;;;;7.35;3.00;;;;;;;22.24;50.26;93987.63;5146484;27;20328;-82
2023/05/25 12:41:49;;;;;;;4.88;2.55;;;;;;;22.61;49.00;93997.41;5128231;27;20027;-81
2023/05/25 12:44:32;;;;;;;15.52;3.38;;;;;;;22.79;47.35;93981.09;5146504;27;20034;-82
2023/05/25 12:47:12;;;;;;;;;;;;;;;23.05;45.65;93973.78;5146464;27;20023;-82
2023/05/25 12:49:38;;;;;;;8.88;2.90;;;;;;;23.46;46.59;93970.59;5146240;27;19910;-82
2023/05/25 12:52:04;;;;;;;4.70;2.88;;;;;;;23.69;43.07;93966.63;5127852;27;20053;-82
2023/05/25 12:54:44;;;;;;;4.32;2.10;;;;;;;23.92;40.67;93958.81;5127789;27;20065;-82
2023/05/25 12:57:15;;;;;;;5.45;2.58;;;;;;;24.33;40.30;93952.75;5146047;27;20057;-82
2023/05/25 12:59:42;;;;;;;9.32;2.58;;;;;;;24.57;41.17;93956.53;5146112;27;20023;-82
2023/05/25 13:02:09;;;;;;;7.43;2.58;;;;;;;24.67;42.04;93956.84;5146116;27;20023;-82
2023/05/25 13:04:38;;;;;;;7.07;2.45;;;;;;;25.16;39.45;93941.25;5145991;27;20023;-82
2023/05/25 13:07:07;;;;;;;19.83;3.10;;;;;;;25.74;37.63;93941.44;5146007;27;20023;-81
2023/05/25 13:09:33;;;;;;;7.57;1.98;;;;;;;26.31;35.40;93934.50;5145985;27;20026;-82
2023/05/25 13:12:00;;;;;;;7.63;2.22;;;;;;;27.31;33.10;93937.63;5145829;27;20026;-82
2023/05/25 13:14:26;;;;;;;10.73;2.92;;;;;;;28.15;31.95;93928.19;5145784;27;20030;-82
2023/05/25 13:16:53;;;;;;;8.88;2.63;;;;;;;28.91;30.10;93924.53;5145817;27;20019;-83
2023/05/25 13:19:20;;;;;;;4.65;2.03;;;;;;;29.57;29.06;93935.41;5146048;27;20011;-80
2023/05/25 13:21:47;;;;;;;4.18;2.00;;;;;;;30.07;28.51;93923.06;5145684;27;20056;-81
2023/05/25 13:24:14;;;;;;;5.53;2.15;;;;;;;30.68;27.80;93923.22;5145643;27;20320;-80
2023/05/25 13:26:39;;;;;;;8.40;2.70;;;;;;;30.86;26.84;93926.19;5145556;27;20208;-80
2023/05/25 13:29:05;;;;;;;5.60;1.98;;;;;;;31.24;25.92;93927.34;5145539;27;20011;-81
2023/05/25 13:31:30;;;;;;;4.55;1.90;;;;;;;31.06;25.38;93928.72;5145382;27;20015;-80
2023/05/25 13:33:57;;;;;;;9.73;2.13;;;;;;;31.01;25.98;93925.75;5145629;27;20043;-81
2023/05/25 13:36:23;;;;;;;6.78;1.92;;;;;;;31.27;26.10;93924.47;5145458;27;20022;-84
2023/05/25 13:38:49;;;;;;;16.00;1.85;;;;;;;31.99;25.38;93924.72;5127277;27;20363;-81
2023/05/25 13:41:15;;;;;;;7.60;1.75;;;;;;;32.28;23.72;93926.44;5145339;27;20019;-84
2023/05/25 13:43:40;;;;;;;16.88;1.98;;;;;;;32.54;22.97;93924.28;5145534;27;20022;-83
2023/05/25 13:46:06;;;;;;;6.85;2.30;;;;;;;32.38;23.05;93926.06;5145381;27;20092;-81
2023/05/25 13:48:31;;;;;;;4.63;1.75;;;;;;;32.57;22.34;93929.69;5145155;27;20119;-82
2023/05/25 13:50:58;;;;;;;6.32;1.75;;;;;;;32.58;23.31;93936.72;5126826;27;20026;-83
2023/05/25 13:53:24;;;;;;;3.50;1.77;;;;;;;32.94;22.17;93921.53;5145116;27;20011;-82
2023/05/25 13:55:49;;;;;;;7.88;1.88;;;;;;;33.03;21.13;93920.75;5145152;27;20271;-81
2023/05/25 13:58:15;;;;;;;4.53;1.98;;;;;;;33.19;20.89;93925.28;5127054;27;20019;-82
2023/05/25 14:00:40;;;;;;;5.38;1.50;;;;;;;33.57;21.03;93926.84;5145097;27;20019;-82
2023/05/25 14:03:06;;;;;;;4.40;1.58;;;;;;;34.07;19.61;93935.72;5144931;27;20019;-83
2023/05/25 14:05:32;;;;;;;2.95;1.75;;;;;;;34.32;19.39;93926.34;5144807;27;20250;-82
2023/05/25 14:08:01;;;;;;;4.63;1.50;;;;;;;34.32;19.94;93925.56;5145010;27;20023;-81
2023/05/25 14:10:27;;;;;;;3.42;1.52;;;;;;;34.65;18.95;93927.63;5144744;27;20332;-82
2023/05/25 14:12:52;;;;;;;7.38;1.52;;;;;;;35.38;18.52;93920.16;5144467;27;20029;-80
2023/05/25 14:15:17;;;;;;;3.03;1.40;;;;;;;36.28;18.41;93930.22;5145013;27;20727;-82
2023/05/25 14:17:43;;;;;;;5.80;1.58;;;;;;;36.73;16.96;93928.94;5144680;27;20019;-84
2023/05/25 14:20:09;;;;;;;8.13;1.50;;;;;;;37.03;17.40;93922.56;5144506;27;20221;-84
2023/05/25 14:22:34;;;;;;;4.82;1.42;;;;;;;36.97;16.58;93913.38;5144040;27;20047;-85
2023/05/25 14:25:00;;;;;;;2.40;1.30;;;;;;;36.29;17.21;93918.63;5144456;27;20031;-83
2023/05/25 14:27:25;;;;;;;3.90;1.52;;;;;;;36.00;16.87;93907.50;5144454;27;20015;-82
2023/05/25 14:29:51;;;;;;;5.47;1.63;;;;;;;36.29;18.28;93906.75;5144242;27;20026;-84
2023/05/25 14:32:17;;;;;;;8.07;1.80;;;;;;;36.37;16.59;93902.34;5144493;27;20015;-83
2023/05/25 14:34:43;;;;;;;2.80;1.45;;;;;;;36.54;15.96;93906.16;5125953;27;20213;-82
2023/05/25 14:37:09;;;;;;;4.40;1.73;;;;;;;36.99;16.20;93903.31;5125882;27;20023;-84
2023/05/25 14:39:35;;;;;;;4.55;1.45;;;;;;;36.98;16.30;93893.44;5144118;27;20047;-83
2023/05/25 14:42:04;;;;;;;2.22;1.38;;;;;;;36.81;16.26;93900.78;5144309;27;20063;-81
2023/05/25 14:44:30;;;;;;;5.30;1.95;;;;;;;37.18;16.88;93892.72;5144114;27;20041;-81
2023/05/25 14:46:55;;;;;;;3.35;1.38;;;;;;;37.90;15.16;93891.25;5143986;27;20333;-83
2023/05/25 14:49:23;;;;;;;6.97;1.50;;;;;;;38.73;14.03;93892.50;5144080;27;20026;-82
2023/05/25 14:51:55;;;;;;;3.13;1.30;;;;;;;39.33;14.10;93890.59;5144044;27;20019;-82
2023/05/25 14:54:20;;;;;;;;;;;;;;;39.96;14.03;93888.81;5144245;27;20027;-82
2023/05/25 14:56:46;;;;;;;10.77;2.05;;;;;;;40.47;13.94;93884.03;5143981;27;19903;-78
2023/05/25 14:59:12;;;;;;;3.78;1.50;;;;;;;40.85;12.83;93884.53;5143825;27;20091;-78
2023/05/25 15:01:37;;;;;;;3.25;1.60;;;;;;;41.24;12.34;93880.91;5143788;27;20019;-79
2023/05/25 15:04:03;;;;;;;2.80;1.30;;;;;;;41.40;12.65;93882.13;5143668;27;20201;-81
2023/05/25 15:06:28;;;;;;;5.63;1.45;;;;;;;41.22;13.04;93877.84;5125202;28;20030;-79
2023/05/25 15:08:54;;;;;;;5.10;1.50;;;;;;;41.55;12.60;93869.84;5125479;28;20251;-78
2023/05/25 15:11:19;;;;;;;4.18;1.92;;;;;;;41.62;11.88;93870.06;5143814;27;20022;-78
2023/05/25 15:13:45;;;;;;;3.78;1.58;;;;;;;41.15;12.69;93864.38;5143649;28;20278;-79
2023/05/25 15:16:15;;;;;;;6.00;1.63;;;;;;;39.76;13.17;93869.47;5125253;28;20034;-78
2023/05/25 15:18:40;;;;;;;3.08;1.50;;;;;;;37.99;14.99;93871.63;5143556;28;20049;-78
2023/05/25 15:21:06;;;;;;;7.50;1.48;;;;;;;37.78;15.94;93872.94;5143655;28;20027;-78
2023/05/25 15:23:31;;;;;;;3.33;1.73;;;;;;;38.27;15.21;93871.16;5143648;28;20058;-78
2023/05/25 15:26:01;;;;;;;4.07;1.40;;;;;;;38.71;14.53;93872.75;5143585;28;20023;-78
2023/05/25 15:28:27;;;;;;;5.43;1.88;;;;;;;38.53;14.69;93879.47;5143563;28;20019;-77
2023/05/25 15:30:52;;;;;;;3.38;1.60;;;;;;;37.84;16.14;93879.31;5143453;28;20023;-77
2023/05/25 15:33:18;;;;;;;5.43;1.70;;;;;;;37.28;18.89;93879.44;5143731;27;20023;-77
2023/05/25 15:35:43;;;;;;;12.90;1.92;;;;;;;37.05;19.51;93876.38;5147623;27;20030;-77
2023/05/25 15:38:08;;;;;;;10.43;5.00;;;;;;;36.52;19.91;93880.91;5147740;27;20023;-78
2023/05/25 15:40:35;;;;;;;4.88;1.92;;;;;;;35.84;21.08;93881.00;5147745;27;20334;-77
2023/05/25 15:43:01;;;;;;;5.13;1.80;;;;;;;34.86;22.12;93887.06;5147628;27;20257;-77
2023/05/25 15:45:26;;;;;;;4.65;2.05;;;;;;;33.97;23.30;93887.19;5147423;27;20033;-76
2023/05/25 15:47:52;;;;;;;3.97;2.00;;;;;;;33.11;24.32;93879.84;5147400;27;20019;-77
2023/05/25 15:50:17;;;;;;;7.90;2.17;;;;;;;31.96;26.07;93885.06;5147565;27;20030;-76
2023/05/25 15:52:42;;;;;;;4.50;1.80;;;;;;;31.18;27.54;93891.34;5147284;27;20019;-76
2023/05/25 15:55:08;;;;;;;3.45;1.90;;;;;;;30.43;28.56;93897.28;5147256;27;20023;-76
2023/05/25 15:57:33;;;;;;;7.15;2.63;;;;;;;29.69;29.85;93898.22;5147253;27;20086;-76
2023/05/25 15:59:59;;;;;;;9.43;2.50;;;;;;;29.06;30.61;93896.72;5128783;27;20086;-76
2023/05/25 16:02:24;;;;;;;6.63;2.60;;;;;;;28.46;31.96;93897.75;5147014;27;20072;-76
2023/05/25 16:04:50;;;;;;;4.82;2.88;;;;;;;28.08;33.09;93884.50;5147111;27;21035;-77
2023/05/25 16:07:15;;;;;;;10.73;2.72;;;;;;;27.50;35.38;93890.38;5128910;27;20098;-78
2023/05/25 16:09:40;;;;;;;6.63;3.13;;;;;;;27.01;37.75;93893.59;5146928;27;20022;-77
2023/05/25 16:12:06;;;;;;;7.57;3.38;;;;;;;26.65;38.61;93881.69;5146892;27;20038;-77
2023/05/25 16:14:31;;;;;;;5.30;2.83;;;;;;;26.20;41.13;93882.75;5146815;27;20313;-79
2023/05/25 16:16:57;;;;;;;3.38;2.03;;;;;;;25.92;41.59;93892.88;5146937;27;20011;-77
2023/05/25 16:19:23;;;;;;;5.93;2.90;;;;;;;25.62;42.80;93902.59;5146970;27;20238;-77
2023/05/25 16:21:48;;;;;;;9.73;2.70;;;;;;;25.32;44.77;93919.69;5128500;27;20091;-77
2023/05/25 16:24:13;;;;;;;5.97;3.10;;;;;;;25.06;45.08;93918.34;5146646;27;20050;-78
2023/05/25 16:26:39;;;;;;;10.07;3.10;;;;;;;24.83;45.12;93910.75;5146961;27;20023;-76
2023/05/25 16:29:04;;;;;;;5.10;2.30;;;;;;;24.45;45.08;93934.41;5146315;27;20279;-77
2023/05/25 16:31:29;;;;;;;12.45;2.40;;;;;;;24.16;46.02;93915.50;5146198;27;20072;-76
2023/05/25 16:33:55;;;;;;;10.18;2.65;;;;;;;23.91;46.43;93915.66;5146447;27;20034;-76
2023/05/25 16:36:21;;;;;;;6.65;2.70;;;;;;;23.66;47.15;93921.19;5146390;27;20015;-76
2023/05/25 16:38:46;;;;;;;5.55;3.17;;;;;;;23.48;48.00;93929.41;5146458;27;20019;-76
2023/05/25 16:41:11;;;;;;;5.28;2.35;;;;;;;23.24;47.49;93931.78;5146495;27;20015;-76
2023/05/25 16:43:37;;;;;;;11.70;2.40;;;;;;;23.00;48.26;93945.00;5146240;27;20007;-75
2023/05/25 16:46:03;;;;;;;6.03;2.47;;;;;;;22.77;48.05;93939.19;5145776;27;20046;-77
2023/05/25 16:48:30;;;;;;;4.88;2.67;;;;;;;22.53;48.97;93951.59;5146205;27;20038;-77
2023/05/25 16:50:56;;;;;;;8.05;2.95;;;;;;;22.36;49.32;93953.13;5146117;27;20309;-77
2023/05/25 16:53:21;;;;;;;10.13;4.10;;;;;;;22.22;50.11;93964.72;5146158;27;20015;-77
2023/05/25 16:55:47;;;;;;;10.48;3.78;;;;;;;22.05;52.10;93968.94;5127735;27;20272;-77
2023/05/25 16:58:12;;;;;;;20.98;7.85;;;;;;;21.84;53.76;93978.56;5145783;27;20022;-77